ADDS - METARS form results

Aviation Digital Data Service (ADDS)

Output produced by METARs form (2141 UTC 19 February 2019)
found at http://aviationweather.gov/metar/data/
 
METAR text: KVYS 192135Z AUTO 07007KT 10SM BKN023 BKN120 M02/M07 A3048 RMK AO2 T10211070
Conditions at: KVYS (PERU , IL, US) observed 2135 UTC 19 February 2019
Temperature: -2.1°C (28°F)
Dewpoint: -7.0°C (19°F) [RH = 69%]
Pressure (altimeter): 30.48 inches Hg (1032.3 mb)
Winds: from the ENE (70 degrees) at 8 MPH (7 knots; 3.6 m/s)
Visibility: 10 or more miles (16+ km)
Ceiling: 2300 feet AGL
Clouds: broken clouds at 2300 feet AGL
broken clouds at 12000 feet AGL
Weather: automated observation with no human augmentation;
there may or may not be significant weather present at this time

METAR text: KVYS 192115Z AUTO 07006KT 10SM SCT023 SCT120 M02/M07 A3048 RMK AO2 T10241074
Conditions at: KVYS (PERU , IL, US) observed 2115 UTC 19 February 2019
Temperature: -2.4°C (28°F)
Dewpoint: -7.4°C (19°F) [RH = 68%]
Pressure (altimeter): 30.48 inches Hg (1032.3 mb)
Winds: from the ENE (70 degrees) at 7 MPH (6 knots; 3.1 m/s)
Visibility: 10 or more miles (16+ km)
Ceiling: at least 12,000 feet AGL
Clouds: scattered clouds at 2300 feet AGL
scattered clouds at 12000 feet AGL
Weather: automated observation with no human augmentation;
there may or may not be significant weather present at this time

METAR text: KVYS 192055Z AUTO 07004KT 10SM CLR M02/M08 A3050 RMK AO2 T10251079
Conditions at: KVYS (PERU , IL, US) observed 2055 UTC 19 February 2019
Temperature: -2.5°C (28°F)
Dewpoint: -7.9°C (18°F) [RH = 66%]
Pressure (altimeter): 30.50 inches Hg (1032.9 mb)
Winds: from the ENE (70 degrees) at 5 MPH (4 knots; 2.1 m/s)
Visibility: 10 or more miles (16+ km)
Ceiling: at least 12,000 feet AGL
Clouds: sky clear below 12,000 feet AGL
Weather: automated observation with no human augmentation;
there may or may not be significant weather present at this time